createdAt,value
2023-03-19T00:04:12.011Z,100457.63
2023-03-19T00:09:15.304Z,100440.31
2023-03-19T00:14:20.304Z,100456.53
2023-03-19T00:19:23.745Z,100445.25
2023-03-19T00:24:27.210Z,100447.16
2023-03-19T00:29:31.990Z,100447.63
2023-03-19T00:34:35.144Z,100448.31
2023-03-19T00:39:38.759Z,100436.53
2023-03-19T00:44:43.771Z,100441.31
2023-03-19T00:49:47.452Z,100437.22
2023-03-19T00:54:51.255Z,100422.75
2023-03-19T00:59:56.227Z,100427.09
2023-03-19T01:04:59.719Z,100415.47
2023-03-19T01:10:04.110Z,100421.44
2023-03-19T01:15:10.473Z,100412.94
2023-03-19T01:20:15.504Z,100408.34
2023-03-19T01:25:18.916Z,100403.06
2023-03-19T01:30:23.714Z,100404.47
2023-03-19T01:35:26.768Z,100404.47
2023-03-19T01:40:31.773Z,100396.53
2023-03-19T01:45:38.794Z,100388.25
2023-03-19T01:50:45.766Z,100396.66
2023-03-19T01:55:49.920Z,100386.06
2023-03-19T02:00:55.213Z,100391.03
2023-03-19T02:05:59.849Z,100380.53
2023-03-19T02:11:03.220Z,100377.09
2023-03-19T02:16:09.059Z,100378.75
2023-03-19T02:21:15.836Z,100379.31
2023-03-19T02:26:22.700Z,100373.78
2023-03-19T02:31:26.493Z,100375.56
2023-03-19T02:36:34.281Z,100366.25
2023-03-19T02:41:43.006Z,100375.53
2023-03-19T02:46:46.488Z,100365.38
2023-03-19T02:51:50.064Z,100355.84
2023-03-19T02:56:54.947Z,100354.75
2023-03-19T03:01:58.405Z,100360.88
2023-03-19T03:07:02.165Z,100353.16
2023-03-19T03:12:08.616Z,100350.41
2023-03-19T03:17:12.199Z,100349.06
2023-03-19T03:22:15.550Z,100347.50
2023-03-19T03:27:20.308Z,100353.31
2023-03-19T03:32:23.749Z,100347.25
2023-03-19T03:37:27.109Z,100352.31
2023-03-19T03:42:31.898Z,100342.59
2023-03-19T03:47:35.197Z,100341.28
2023-03-19T03:52:38.634Z,100338.19
2023-03-19T03:57:43.594Z,100337.34
2023-03-19T04:02:47.379Z,100332.50
2023-03-19T04:07:50.794Z,100310.19
2023-03-19T04:12:55.643Z,100327.91
2023-03-19T04:17:58.791Z,100328.03
2023-03-19T04:23:03.534Z,100317.75
2023-03-19T04:28:09.328Z,100324.69
2023-03-19T04:33:13.304Z,100332.50
2023-03-19T04:38:16.834Z,100331.19
2023-03-19T04:43:22.186Z,100320.16
2023-03-19T04:48:26.657Z,100313.59
2023-03-19T04:53:30.728Z,100316.00
2023-03-19T04:58:35.661Z,100306.66
2023-03-19T05:03:39.358Z,100303.00
2023-03-19T05:08:42.938Z,100293.34
2023-03-19T05:13:47.861Z,100281.41
2023-03-19T05:18:51.101Z,100278.25
2023-03-19T05:23:55.028Z,100272.69
2023-03-19T05:28:59.903Z,100270.00
2023-03-19T05:34:03.003Z,100275.34
2023-03-19T05:39:06.568Z,100259.88
2023-03-19T05:44:11.631Z,100249.66
2023-03-19T05:49:15.463Z,100244.31
2023-03-19T05:54:19.164Z,100246.38
2023-03-19T05:59:23.922Z,100236.38
2023-03-19T06:04:27.490Z,100242.72
2023-03-19T06:09:31.267Z,100236.69
2023-03-19T06:14:36.049Z,100228.91
2023-03-19T06:19:39.697Z,100208.81
2023-03-19T06:24:43.234Z,100210.75
2023-03-19T06:29:47.990Z,100212.41
2023-03-19T06:34:51.442Z,100202.63
2023-03-19T06:39:55.511Z,100199.34
2023-03-19T06:45:00.328Z,100196.66
2023-03-19T06:50:04.686Z,100191.63
2023-03-19T06:55:09.442Z,100189.91
2023-03-19T07:00:15.794Z,100177.44
2023-03-19T07:05:19.478Z,100171.28
2023-03-19T07:10:23.070Z,100176.16
2023-03-19T07:15:27.793Z,100165.13
2023-03-19T07:20:31.246Z,100164.19
2023-03-19T07:25:34.654Z,100144.50
2023-03-19T07:30:40.985Z,100147.69
2023-03-19T07:35:44.343Z,100147.84
2023-03-19T07:41:00.980Z,100143.69
2023-03-19T07:46:08.147Z,100136.56
2023-03-19T07:51:11.577Z,100126.84
2023-03-19T07:56:15.120Z,100121.72
2023-03-19T08:01:19.901Z,100123.19
2023-03-19T08:06:24.150Z,100122.94
2023-03-19T08:11:30.115Z,100097.59
2023-03-19T08:16:34.929Z,100087.50
2023-03-19T08:21:38.390Z,100089.78
2023-03-19T08:26:41.992Z,100085.44
2023-03-19T08:31:46.880Z,100081.88
2023-03-19T08:36:50.588Z,100075.78
2023-03-19T08:41:53.959Z,100064.59
2023-03-19T08:46:58.790Z,100058.09
2023-03-19T08:52:02.164Z,100059.91
2023-03-19T08:57:05.628Z,100048.22
2023-03-19T09:02:11.990Z,100055.22
2023-03-19T09:07:16.167Z,100047.63
2023-03-19T09:12:20.066Z,100032.53
2023-03-19T09:17:24.834Z,100033.44
2023-03-19T09:22:27.890Z,100039.53
2023-03-19T09:27:31.329Z,100034.22
2023-03-19T09:32:36.216Z,100029.28
2023-03-19T09:37:39.352Z,100017.66
2023-03-19T09:43:00.908Z,100013.41
2023-03-19T09:48:09.548Z,100012.66
2023-03-19T09:53:21.259Z,100006.81
2023-03-19T09:58:31.901Z,99996.53
2023-03-19T10:03:54.226Z,99994.78
2023-03-19T10:09:10.098Z,99989.72
2023-03-19T10:14:37.708Z,99987.66
2023-03-19T10:19:48.218Z,99990.06
2023-03-19T10:24:53.649Z,99968.22
2023-03-19T10:29:57.242Z,99971.09
2023-03-19T10:35:09.104Z,99962.47
2023-03-19T10:40:21.372Z,99956.66
2023-03-19T10:45:28.256Z,99960.34
2023-03-19T10:50:36.996Z,99954.53
2023-03-19T10:55:45.936Z,99941.44
2023-03-19T11:00:51.335Z,99938.53
2023-03-19T11:06:06.601Z,99938.00
2023-03-19T11:11:25.053Z,99928.63
2023-03-19T11:16:28.566Z,99915.78
2023-03-19T11:21:34.316Z,99919.00
2023-03-19T11:26:37.757Z,99916.72
2023-03-19T11:31:50.257Z,99909.69
2023-03-19T11:37:03.579Z,99870.31
2023-03-19T11:42:30.278Z,99899.81
2023-03-19T11:47:43.638Z,99876.06
2023-03-19T11:53:03.236Z,99872.22
2023-03-19T11:58:31.715Z,99863.94
2023-03-19T12:03:58.783Z,99869.72
2023-03-19T12:09:11.003Z,99855.47
2023-03-19T12:14:28.597Z,99843.03
2023-03-19T12:20:06.835Z,99838.25
2023-03-19T12:25:25.201Z,99831.47
2023-03-19T12:30:38.482Z,99826.28
2023-03-19T12:35:43.368Z,99821.72
2023-03-19T12:40:53.761Z,99805.94
2023-03-19T12:46:01.595Z,99796.81
2023-03-19T12:51:10.744Z,99787.84
2023-03-19T12:56:21.620Z,99794.06
2023-03-19T13:01:28.882Z,99795.75
2023-03-19T13:06:37.338Z,99782.03
2023-03-19T13:11:47.865Z,99779.88
2023-03-19T13:16:58.920Z,99787.16
2023-03-19T13:22:05.796Z,99781.91
2023-03-19T13:27:17.754Z,99780.34
2023-03-19T13:32:26.829Z,99777.72
2023-03-19T13:37:30.225Z,99771.63
2023-03-19T13:42:39.680Z,99755.38
2023-03-19T13:47:44.483Z,99747.41
2023-03-19T13:52:50.986Z,99747.91
2023-03-19T13:58:12.229Z,99746.63
2023-03-19T14:03:23.526Z,99740.75
2023-03-19T14:08:29.907Z,99739.66
2023-03-19T14:13:39.477Z,99738.53
2023-03-19T14:18:44.611Z,99729.94
2023-03-19T14:23:56.336Z,99719.88
2023-03-19T14:29:04.376Z,99715.22
2023-03-19T14:34:19.518Z,99715.56
2023-03-19T14:39:25.001Z,99713.75
2023-03-19T14:45:22.107Z,99715.84
2023-03-19T14:50:41.718Z,99707.69
2023-03-19T14:55:51.071Z,99707.69
2023-03-19T15:00:56.873Z,99708.28
2023-03-19T15:06:02.781Z,99701.06
2023-03-19T15:11:25.348Z,99713.59
2023-03-19T15:16:38.739Z,99714.03
2023-03-19T15:21:42.304Z,99709.22
2023-03-19T15:26:47.279Z,99712.28
2023-03-19T15:32:03.781Z,99719.66
2023-03-19T15:37:12.251Z,99707.16
2023-03-19T15:42:17.872Z,99713.72
2023-03-19T15:47:26.026Z,99718.97
2023-03-19T15:52:33.462Z,99713.88
2023-03-19T15:57:39.983Z,99715.22
2023-03-19T16:02:48.551Z,99710.28
2023-03-19T16:07:57.547Z,99716.56
2023-03-19T16:13:04.202Z,99716.53
2023-03-19T16:18:27.560Z,99713.13
2023-03-19T16:23:34.392Z,99707.44
2023-03-19T16:28:45.303Z,99698.47
2023-03-19T16:33:52.823Z,99699.47
2023-03-19T16:38:58.480Z,99702.84
2023-03-19T16:44:16.672Z,99703.31
2023-03-19T16:49:21.640Z,99709.72
2023-03-19T16:54:26.542Z,99706.69
2023-03-19T16:59:32.424Z,99710.56
2023-03-19T17:04:37.198Z,99702.56
2023-03-19T17:09:40.902Z,99699.56
2023-03-19T17:14:44.916Z,99701.84
2023-03-19T17:19:51.579Z,99701.59
2023-03-19T17:24:56.672Z,99695.97
2023-03-19T17:29:59.706Z,99702.47
2023-03-19T17:35:04.817Z,99702.78
2023-03-19T17:40:17.926Z,99701.72
2023-03-19T17:45:25.484Z,99707.06
2023-03-19T17:50:31.799Z,99695.53
2023-03-19T17:55:35.312Z,99706.78
2023-03-19T18:00:39.095Z,99700.44
2023-03-19T18:05:44.601Z,99695.53
2023-03-19T18:10:48.433Z,99700.56
2023-03-19T18:15:52.234Z,99697.16
2023-03-19T18:20:58.939Z,99696.22
2023-03-19T18:26:02.908Z,99695.13
2023-03-19T18:31:13.942Z,99692.25
2023-03-19T18:36:24.497Z,99692.13
2023-03-19T18:41:29.896Z,99686.88
2023-03-19T18:46:34.613Z,99683.16
2023-03-19T18:51:45.520Z,99679.00
2023-03-19T18:56:59.661Z,99638.78
2023-03-19T19:02:10.971Z,99676.19
2023-03-19T19:07:16.744Z,99656.94
2023-03-19T19:12:20.828Z,99676.16
2023-03-19T19:17:24.888Z,99676.78
2023-03-19T19:22:30.051Z,99675.75
2023-03-19T19:27:33.640Z,99674.94
2023-03-19T19:32:37.106Z,99672.97
2023-03-19T19:37:42.006Z,99667.47
2023-03-19T19:42:46.291Z,99670.00
2023-03-19T19:47:50.041Z,99655.94
2023-03-19T19:52:55.583Z,99667.53
2023-03-19T19:57:59.716Z,99661.47
2023-03-19T20:03:03.072Z,99657.69
2023-03-19T20:08:08.190Z,99659.53
2023-03-19T20:13:25.075Z,99655.75
2023-03-19T20:18:31.947Z,99666.25
2023-03-19T20:23:37.862Z,99657.06
2023-03-19T20:28:42.104Z,99648.44
2023-03-19T20:33:45.471Z,99656.47
2023-03-19T20:38:50.986Z,99653.28
2023-03-19T20:43:55.267Z,99654.56
2023-03-19T20:48:58.766Z,99645.22
2023-03-19T20:54:05.013Z,99642.88
2023-03-19T20:59:12.937Z,99635.91
2023-03-19T21:04:19.749Z,99648.53
2023-03-19T21:09:26.230Z,99639.19
2023-03-19T21:14:29.781Z,99633.41
2023-03-19T21:19:33.125Z,99641.88
2023-03-19T21:24:38.038Z,99626.63
2023-03-19T21:29:41.273Z,99632.78
2023-03-19T21:34:44.704Z,99630.72
2023-03-19T21:39:49.451Z,99629.03
2023-03-19T21:44:58.983Z,99629.03
2023-03-19T21:50:02.794Z,99617.78
2023-03-19T21:55:09.750Z,99619.16
2023-03-19T22:00:16.475Z,99616.78
2023-03-19T22:05:23.591Z,99623.84
2023-03-19T22:10:30.914Z,99625.47
2023-03-19T22:15:37.796Z,99614.38
2023-03-19T22:20:42.530Z,99607.41
2023-03-19T22:25:49.202Z,99609.31
2023-03-19T22:30:52.586Z,99604.41
2023-03-19T22:35:56.884Z,99612.34
2023-03-19T22:41:02.849Z,99607.09
2023-03-19T22:46:09.201Z,99604.41
2023-03-19T22:51:17.430Z,99607.75
2023-03-19T22:56:23.423Z,99608.19
2023-03-19T23:01:32.858Z,99602.03
2023-03-19T23:06:36.390Z,99596.78
2023-03-19T23:11:41.200Z,99594.56
2023-03-19T23:16:47.044Z,99594.06
2023-03-19T23:21:50.790Z,99583.69
2023-03-19T23:26:57.680Z,99585.81
2023-03-19T23:32:01.070Z,99589.94
2023-03-19T23:37:04.590Z,99591.34
2023-03-19T23:42:13.093Z,99588.09
2023-03-19T23:47:17.020Z,99582.47
2023-03-19T23:52:20.483Z,99587.78
2023-03-19T23:57:26.747Z,99571.53
